Time;durP1;ratioP1;P1;durP2;ratioP2;P2;SDS_P1;SDS_P2;PMS_P1;PMS_P2;Temp;Humidity;BMP_temperature;BMP_pressure;BME280_temperature;BME280_humidity;BME280_pressure;Samples;Min_cycle;Max_cycle;Signal;HPM_P1;HPM_P2
2022/10/12 00:01:44;;;;;;;;;5.67;5.67;;;;;14.34;50.28;101794.28;5090393;28;45175;-63
2022/10/12 00:04:09;;;;;;;;;9.25;6.00;;;;;14.69;50.10;101845.47;5089633;28;63532;-68
2022/10/12 00:06:35;;;;;;;;;8.50;7.00;;;;;14.65;50.04;101843.59;5090337;28;45072;-65
2022/10/12 00:09:00;;;;;;;;;6.75;5.00;;;;;14.80;50.17;101850.22;5070103;28;45367;-69
2022/10/12 00:11:27;;;;;;;;;5.67;5.67;;;;;14.53;50.00;101801.06;5088823;28;46048;-69
2022/10/12 00:13:54;;;;;;;;;5.50;5.25;;;;;14.74;49.88;101835.75;5089987;28;45533;-66
2022/10/12 00:16:21;;;;;;;;;6.00;5.50;;;;;14.83;50.00;101845.88;5088480;28;46017;-65
2022/10/12 00:18:55;;;;;;;;;11.00;6.75;;;;;14.89;49.73;101840.63;5068191;28;45177;-67
2022/10/12 00:21:21;;;;;;;;;7.50;7.25;;;;;14.70;50.23;101817.72;5089284;28;45545;-66
2022/10/12 00:23:47;;;;;;;;;7.50;5.50;;;;;14.70;50.14;101844.63;5088773;28;45510;-68
2022/10/12 00:26:15;;;;;;;;;12.25;8.00;;;;;14.69;50.30;101845.47;5089137;28;45484;-65
2022/10/12 00:28:41;;;;;;;;;14.25;9.25;;;;;14.66;50.25;101857.94;5087828;28;45161;-67
2022/10/12 00:31:18;;;;;;;;;10.00;7.00;;;;;14.67;50.84;101854.38;5087364;27;44986;-65
2022/10/12 00:33:44;;;;;;;;;5.00;5.00;;;;;14.10;50.63;101759.56;5089803;28;45089;-68
2022/10/12 00:36:16;;;;;;;;;5.75;5.50;;;;;14.50;50.75;101830.59;5094229;28;44965;-68
2022/10/12 00:38:41;;;;;;;;;9.75;8.50;;;;;14.61;50.91;101852.44;5092312;28;45126;-67
2022/10/12 00:41:06;;;;;;;;;7.00;7.00;;;;;14.54;51.00;101858.47;5093678;28;45222;-68
2022/10/12 00:43:37;;;;;;;;;8.67;7.00;;;;;14.53;51.04;101851.25;5091796;28;44950;-67
2022/10/12 00:46:12;;;;;;;;;9.75;6.75;;;;;14.38;51.48;101828.44;5090314;28;45311;-68
2022/10/12 00:48:38;;;;;;;;;9.25;6.50;;;;;14.41;51.21;101832.13;5089190;28;44948;-64
2022/10/12 00:51:04;;;;;;;;;11.75;7.50;;;;;14.48;51.16;101836.78;5092436;27;45012;-64
2022/10/12 00:53:36;;;;;;;;;9.75;8.00;;;;;14.53;51.29;101853.97;5091368;28;45190;-63
2022/10/12 00:56:09;;;;;;;;;9.75;7.75;;;;;14.12;51.49;101771.28;5089721;28;45105;-66
2022/10/12 00:58:35;;;;;;;;;7.00;6.00;;;;;14.57;50.97;101842.44;5091394;28;45186;-63
2022/10/12 01:01:02;;;;;;;;;6.67;5.33;;;;;14.56;51.34;101854.94;5092685;28;45107;-65
2022/10/12 01:03:28;;;;;;;;;7.00;6.67;;;;;14.49;51.53;101831.44;5090999;28;45723;-65
2022/10/12 01:05:53;;;;;;;;;6.67;5.67;;;;;14.48;51.40;101842.16;5093413;28;45088;-67
2022/10/12 01:08:19;;;;;;;;;7.75;7.25;;;;;14.49;51.78;101850.28;5091169;28;45303;-65
2022/10/12 01:10:45;;;;;;;;;11.50;9.50;;;;;14.42;51.29;101845.59;5092748;28;44981;-64
2022/10/12 01:13:11;;;;;;;;;8.50;6.00;;;;;14.30;51.60;101821.03;5091186;28;45099;-63
2022/10/12 01:15:48;;;;;;;;;8.25;6.75;;;;;14.42;51.90;101840.22;5089428;28;45523;-66
2022/10/12 01:18:20;;;;;;;;;8.75;7.75;;;;;14.38;51.92;101836.50;5093546;28;45188;-66
2022/10/12 01:21:07;;;;;;;;;10.00;9.00;;;;;14.20;52.05;101806.44;5094335;28;45241;-68
2022/10/12 01:23:41;;;;;;;;;7.50;7.50;;;;;14.36;51.96;101838.25;5092721;28;45648;-64
2022/10/12 01:26:25;;;;;;;;;7.75;6.50;;;;;14.38;52.00;101833.81;5092480;28;45082;-68
2022/10/12 01:29:14;;;;;;;;;10.75;7.75;;;;;14.32;52.54;101835.44;5088835;28;45384;-64
2022/10/12 01:31:58;;;;;;;;;15.75;10.00;;;;;14.28;52.36;101836.22;5080419;28;45125;-64
2022/10/12 01:34:30;;;;;;;;;15.25;8.00;;;;;14.18;52.21;101819.81;5091362;28;45196;-66
2022/10/12 01:37:11;;;;;;;;;8.00;8.00;;;;;14.27;52.36;101829.94;5093109;28;50124;-67
2022/10/12 01:39:45;;;;;;;;;9.75;6.50;;;;;14.18;52.42;101827.88;5087940;28;45002;-64
2022/10/12 01:42:19;;;;;;;;;11.75;8.00;;;;;14.18;52.07;101835.94;5091600;28;44990;-64
2022/10/12 01:44:44;;;;;;;;;8.00;8.00;;;;;14.19;52.94;101827.03;5091282;28;45493;-68
2022/10/12 01:47:10;;;;;;;;;8.67;7.00;;;;;14.21;52.79;101832.47;5093137;28;45147;-64
2022/10/12 01:49:36;;;;;;;;;8.50;7.75;;;;;13.97;52.29;101801.31;5091132;27;45268;-68
2022/10/12 01:52:24;;;;;;;;;13.50;7.00;;;;;14.09;52.60;101832.09;5089651;28;45630;-63
2022/10/12 01:55:00;;;;;;;;;8.00;7.00;;;;;14.09;52.30;101829.41;5089060;28;46257;-63
2022/10/12 01:57:50;;;;;;;;;8.75;8.00;;;;;14.02;52.95;101839.06;5090025;28;45106;-68
2022/10/12 02:00:17;;;;;;;;;10.75;10.00;;;;;13.98;52.92;101839.84;5090150;28;45022;-67
2022/10/12 02:02:52;;;;;;;;;10.75;9.25;;;;;13.96;52.74;101830.84;5091717;28;45206;-67
2022/10/12 02:05:24;;;;;;;;;9.50;8.00;;;;;13.94;52.88;101830.78;5090543;28;45264;-67
2022/10/12 02:07:55;;;;;;;;;10.50;7.75;;;;;13.81;53.13;101813.38;5090161;28;45154;-66
2022/10/12 02:10:28;;;;;;;;;6.00;4.75;;;;;13.83;52.95;101833.13;5090059;28;45237;-68
2022/10/12 02:12:55;;;;;;;;;7.00;6.00;;;;;13.78;53.50;101813.28;5090617;28;45425;-68
2022/10/12 02:15:24;;;;;;;;;12.25;9.50;;;;;13.87;52.97;101822.47;5089418;28;45461;-65
2022/10/12 02:17:51;;;;;;;;;6.75;6.50;;;;;13.89;52.96;101831.50;5090118;28;45076;-67
2022/10/12 02:20:19;;;;;;;;;10.25;8.50;;;;;13.79;53.08;101820.50;5091828;28;45515;-67
2022/10/12 02:22:47;;;;;;;;;11.00;7.00;;;;;13.76;53.26;101819.47;5057627;28;45369;-66
2022/10/12 02:25:16;;;;;;;;;9.50;9.50;;;;;13.71;53.38;101813.03;5089155;28;45669;-66
2022/10/12 02:27:46;;;;;;;;;10.25;8.25;;;;;13.71;53.13;101811.28;5088094;28;45167;-63
2022/10/12 02:30:12;;;;;;;;;10.00;5.00;;;;;13.70;52.92;101811.25;5089648;28;45126;-66
2022/10/12 02:32:46;;;;;;;;;10.25;7.00;;;;;13.72;53.89;101802.34;5087833;28;45210;-66
2022/10/12 02:35:11;;;;;;;;;9.00;8.25;;;;;13.71;53.72;101805.91;5071012;28;46787;-65
2022/10/12 02:37:45;;;;;;;;;6.00;6.00;;;;;13.67;53.11;101803.09;5088251;28;45039;-66
2022/10/12 02:40:33;;;;;;;;;12.25;7.75;;;;;13.68;53.72;101794.16;5089604;28;45031;-67
2022/10/12 02:43:24;;;;;;;;;7.00;6.00;;;;;13.64;52.96;101791.41;5081051;28;44944;-66
2022/10/12 02:45:54;;;;;;;;;5.00;5.00;;;;;13.67;53.60;101792.34;5088252;28;45784;-66
2022/10/12 02:48:22;;;;;;;;;6.25;6.25;;;;;13.63;53.10;101794.03;5089448;28;45129;-63
2022/10/12 02:50:53;;;;;;;;;9.75;8.00;;;;;13.56;53.38;101795.63;5090103;27;45408;-66
2022/10/12 02:53:20;;;;;;;;;7.00;6.25;;;;;13.56;53.41;101797.38;5089794;28;45268;-67
2022/10/12 02:56:04;;;;;;;;;9.75;7.25;;;;;13.55;53.85;101792.88;5087689;28;45290;-67
2022/10/12 02:58:30;;;;;;;;;6.25;6.25;;;;;13.34;53.76;101764.50;5083258;28;45237;-66
2022/10/12 03:00:55;;;;;;;;;5.75;5.50;;;;;13.40;54.30;101793.31;5069903;28;45014;-68
2022/10/12 03:03:21;;;;;;;;;6.00;6.00;;;;;13.38;53.64;101787.91;5089435;28;44990;-67
2022/10/12 03:05:46;;;;;;;;;9.50;9.00;;;;;13.28;53.95;101765.19;5088968;28;45938;-68
2022/10/12 03:08:11;;;;;;;;;11.25;10.00;;;;;13.24;54.31;101767.72;5090817;28;45078;-65
2022/10/12 03:10:37;;;;;;;;;12.50;9.50;;;;;13.37;53.89;101788.75;5089110;28;45141;-66
2022/10/12 03:13:02;;;;;;;;;11.75;7.25;;;;;13.30;54.97;101783.09;5089023;28;45241;-68
2022/10/12 03:15:27;;;;;;;;;13.50;7.00;;;;;13.27;54.37;101787.50;5056839;28;47531;-64
2022/10/12 03:17:53;;;;;;;;;9.75;6.25;;;;;13.29;55.26;101784.88;5087300;28;45154;-67
2022/10/12 03:20:18;;;;;;;;;5.75;5.00;;;;;13.36;54.25;101789.59;5088718;28;53569;-67
2022/10/12 03:22:43;;;;;;;;;11.75;10.00;;;;;12.97;54.37;101708.72;5090358;28;44957;-63
2022/10/12 03:25:09;;;;;;;;;10.50;9.25;;;;;13.22;54.80;101756.94;5090251;28;53207;-65
2022/10/12 03:27:34;;;;;;;;;11.25;6.75;;;;;13.25;53.82;101756.13;5086838;28;57864;-66
2022/10/12 03:29:59;;;;;;;;;5.00;5.00;;;;;13.32;55.11;101774.28;5089125;28;45599;-64
2022/10/12 03:32:25;;;;;;;;;14.75;7.00;;;;;13.26;55.01;101790.13;5083286;28;45382;-66
2022/10/12 03:34:50;;;;;;;;;8.75;7.25;;;;;13.27;55.41;101784.81;5087189;28;45170;-64
2022/10/12 03:37:15;;;;;;;;;7.75;7.00;;;;;13.27;54.98;101762.44;5088734;27;45430;-64
2022/10/12 03:39:41;;;;;;;;;11.25;8.25;;;;;13.36;54.35;101781.53;5087935;28;45081;-63
2022/10/12 03:42:06;;;;;;;;;10.50;7.75;;;;;13.19;54.29;101756.81;5085630;28;45034;-66
2022/10/12 03:44:31;;;;;;;;;9.25;7.75;;;;;13.31;55.07;101780.47;5088269;28;45150;-65
2022/10/12 03:46:57;;;;;;;;;8.75;7.50;;;;;13.27;54.90;101789.28;5088032;28;58438;-65
2022/10/12 03:49:22;;;;;;;;;8.00;7.75;;;;;13.27;55.44;101789.28;5086779;28;45284;-66
2022/10/12 03:51:47;;;;;;;;;7.50;7.50;;;;;13.32;55.00;101789.44;5089422;28;45275;-68
2022/10/12 03:54:13;;;;;;;;;11.75;10.00;;;;;13.31;54.66;101787.59;5088457;28;45690;-65
2022/10/12 03:56:38;;;;;;;;;7.50;5.00;;;;;13.25;55.67;101789.25;5089985;28;45151;-65
2022/10/12 03:59:03;;;;;;;;;8.00;8.00;;;;;13.25;54.83;101791.03;5088061;28;44963;-66
2022/10/12 04:01:29;;;;;;;;;7.50;6.75;;;;;13.14;55.02;101773.66;5087033;28;45383;-69
2022/10/12 04:03:54;;;;;;;;;4.50;4.00;;;;;12.82;55.04;101711.81;5084843;28;64110;-63
2022/10/12 04:06:19;;;;;;;;;6.00;4.00;;;;;13.28;54.78;101791.09;5087794;27;46408;-64
2022/10/12 04:08:45;;;;;;;;;6.00;6.00;;;;;13.21;55.33;101776.56;5091743;28;45075;-67
2022/10/12 04:11:10;;;;;;;;;8.50;6.00;;;;;13.24;55.10;101781.13;5092843;28;45072;-66
2022/10/12 04:13:35;;;;;;;;;12.25;7.50;;;;;12.82;55.74;101712.75;5091859;28;64949;-64
2022/10/12 04:16:05;;;;;;;;;7.50;6.00;;;;;13.17;55.61;101793.44;5093497;28;45068;-67
2022/10/12 04:18:32;;;;;;;;;10.25;7.25;;;;;13.15;55.64;101788.88;5089273;28;44965;-63
2022/10/12 04:20:59;;;;;;;;;8.00;5.00;;;;;13.01;56.32;101770.56;5092872;28;45284;-62
2022/10/12 04:23:24;;;;;;;;;9.50;6.50;;;;;13.06;56.60;101782.34;5091287;28;45185;-65
2022/10/12 04:25:49;;;;;;;;;7.25;7.00;;;;;12.99;55.65;101766.03;5090772;27;44972;-65
2022/10/12 04:28:15;;;;;;;;;5.75;5.25;;;;;12.94;56.64;101771.22;5092187;28;45048;-66
2022/10/12 04:30:40;;;;;;;;;9.00;9.00;;;;;12.91;56.20;101755.94;5087845;28;45421;-66
2022/10/12 04:33:05;;;;;;;;;7.00;6.00;;;;;13.14;56.03;101790.66;5091108;28;45529;-64
2022/10/12 04:35:31;;;;;;;;;8.75;8.75;;;;;12.98;55.94;101757.03;5091583;28;45561;-65
2022/10/12 04:37:56;;;;;;;;;8.75;7.75;;;;;13.06;55.10;101766.25;5092756;28;45198;-65
2022/10/12 04:40:21;;;;;;;;;10.25;8.25;;;;;13.27;55.33;101802.72;5091826;28;45211;-65
2022/10/12 04:42:47;;;;;;;;;13.25;10.50;;;;;13.28;55.15;101801.81;5089169;28;45576;-67
2022/10/12 04:45:12;;;;;;;;;6.75;6.50;;;;;13.32;55.08;101809.16;5091110;28;45417;-63
2022/10/12 04:47:41;;;;;;;;;9.25;9.25;;;;;13.05;55.80;101753.72;5091388;28;45111;-63
2022/10/12 04:50:06;;;;;;;;;10.50;7.75;;;;;13.27;56.08;101798.25;5091308;27;45306;-67
2022/10/12 04:52:32;;;;;;;;;10.00;9.00;;;;;13.14;55.09;101762.94;5091077;28;45726;-67
2022/10/12 04:54:57;;;;;;;;;11.50;7.25;;;;;13.26;55.30;101792.81;5092463;28;44986;-65
2022/10/12 04:57:23;;;;;;;;;8.75;8.50;;;;;13.25;55.62;101797.28;5092625;28;50848;-62
2022/10/12 04:59:48;;;;;;;;;9.50;7.25;;;;;13.27;55.95;101794.66;5091606;28;45149;-67
2022/10/12 05:02:14;;;;;;;;;8.50;8.25;;;;;13.31;56.04;101791.19;5090994;27;45320;-66
2022/10/12 05:04:39;;;;;;;;;9.00;8.00;;;;;13.27;56.13;101787.50;5089499;28;45073;-64
2022/10/12 05:07:05;;;;;;;;;11.00;9.00;;;;;13.26;55.81;101774.03;5074586;28;45050;-66
2022/10/12 05:09:30;;;;;;;;;8.00;7.25;;;;;13.34;55.80;101798.47;5089386;28;45134;-68
2022/10/12 05:11:56;;;;;;;;;10.00;9.00;;;;;13.34;56.13;101787.75;5089933;28;51288;-65
2022/10/12 05:14:21;;;;;;;;;10.25;9.25;;;;;13.35;55.45;101797.63;5087229;28;45057;-66
2022/10/12 05:16:46;;;;;;;;;14.25;11.00;;;;;13.28;55.98;101785.72;5091016;28;45259;-66
2022/10/12 05:19:11;;;;;;;;;9.00;5.75;;;;;13.14;55.90;101770.97;5091473;28;44996;-65
2022/10/12 05:21:39;;;;;;;;;38.00;33.25;;;;;13.09;56.41;101779.78;5091664;28;63433;-68
2022/10/12 05:24:05;;;;;;;;;15.75;14.50;;;;;13.13;56.10;101786.13;5074102;28;45127;-65
2022/10/12 05:26:30;;;;;;;;;12.00;10.50;;;;;13.14;55.66;101793.34;5093315;28;45286;-66
2022/10/12 05:28:55;;;;;;;;;14.50;11.00;;;;;13.13;55.65;101793.28;5091797;28;45336;-66
2022/10/12 05:31:20;;;;;;;;;12.75;9.25;;;;;13.08;56.41;101802.13;5092944;28;57092;-68
2022/10/12 05:33:46;;;;;;;;;13.50;9.00;;;;;13.16;56.38;101810.41;5091962;28;48100;-63
2022/10/12 05:36:11;;;;;;;;;10.25;9.00;;;;;12.91;55.84;101772.03;5090336;28;53891;-65
2022/10/12 05:38:37;;;;;;;;;14.50;10.00;;;;;12.98;56.17;101786.56;5092285;28;49474;-66
2022/10/12 05:41:02;;;;;;;;;4.00;4.00;;;;;13.07;56.52;101799.38;5091536;28;45520;-67
2022/10/12 05:43:28;;;;;;;;;11.00;10.00;;;;;12.71;56.01;101739.19;5092894;28;44985;-69
2022/10/12 05:45:53;;;;;;;;;13.00;12.00;;;;;13.15;56.33;101807.66;5091671;28;45050;-64
2022/10/12 05:48:18;;;;;;;;;15.00;13.25;;;;;12.76;56.58;101727.72;5091103;28;45104;-65
2022/10/12 05:50:44;;;;;;;;;18.75;13.00;;;;;13.14;55.78;101800.50;5089871;27;45360;-65
2022/10/12 05:53:09;;;;;;;;;20.75;11.50;;;;;12.86;55.44;101736.09;5073694;28;45063;-65
2022/10/12 05:55:34;;;;;;;;;6.00;2.00;;;;;13.25;55.63;101794.59;5093566;28;53762;-68
2022/10/12 05:58:00;;;;;;;;;37.25;27.75;;;;;13.17;56.94;101785.41;5075035;28;45133;-68
2022/10/12 06:00:25;;;;;;;;;56.75;43.25;;;;;13.24;56.59;101789.19;5090995;28;45911;-65
2022/10/12 06:02:50;;;;;;;;;34.75;31.50;;;;;13.16;55.86;101788.03;5087856;28;46913;-66
2022/10/12 06:05:16;;;;;;;;;17.00;13.75;;;;;13.26;56.37;101788.38;5089425;28;45055;-63
2022/10/12 06:07:42;;;;;;;;;24.00;19.25;;;;;13.33;55.74;101792.22;5092135;28;44968;-67
2022/10/12 06:10:07;;;;;;;;;20.00;14.00;;;;;13.18;55.59;101760.41;5091699;28;45152;-74
2022/10/12 06:12:33;;;;;;;;;15.25;13.75;;;;;13.20;55.09;101747.00;5092955;28;45005;-72
2022/10/12 06:14:58;;;;;;;;;12.50;11.00;;;;;13.44;55.05;101785.38;5092823;28;45150;-67
2022/10/12 06:17:23;;;;;;;;;28.50;27.50;;;;;13.46;55.62;101785.44;5091440;28;51292;-73
2022/10/12 06:19:49;;;;;;;;;15.50;13.50;;;;;13.42;54.96;101764.75;5089097;28;45536;-72
2022/10/12 06:22:14;;;;;;;;;24.00;20.25;;;;;13.61;55.45;101795.72;5092319;28;50718;-71
2022/10/12 06:24:39;;;;;;;;;44.25;33.00;;;;;13.48;54.92;101775.69;5091935;28;45123;-67
2022/10/12 06:27:05;;;;;;;;;15.00;13.75;;;;;13.63;55.14;101802.97;5091471;28;45302;-72
2022/10/12 06:29:30;;;;;;;;;14.50;14.50;;;;;13.19;54.89;101724.63;5090058;27;45262;-71
2022/10/12 06:31:56;;;;;;;;;16.25;15.00;;;;;13.47;55.13;101776.53;5083432;28;45195;-70
2022/10/12 06:34:21;;;;;;;;;28.50;18.25;;;;;13.67;54.92;101811.13;5068161;28;45001;-70
2022/10/12 06:36:47;;;;;;;;;34.25;30.00;;;;;13.64;55.28;101803.88;5091047;28;45200;-74
2022/10/12 06:39:12;;;;;;;;;32.25;21.75;;;;;13.53;54.58;101778.47;5085696;28;46662;-74
2022/10/12 06:41:38;;;;;;;;;18.25;16.50;;;;;13.72;54.76;101815.78;5090552;28;45068;-71
2022/10/12 06:44:04;;;;;;;;;26.25;14.00;;;;;13.70;55.31;101809.47;5089302;28;45423;-72
2022/10/12 06:46:29;;;;;;;;;37.75;29.00;;;;;13.47;54.78;101770.25;5089040;28;44947;-75
2022/10/12 06:48:54;;;;;;;;;25.50;23.00;;;;;13.72;55.23;101802.34;5087595;28;45088;-71
2022/10/12 06:51:20;;;;;;;;;18.25;15.75;;;;;13.85;54.96;101824.22;5091025;27;44929;-72
2022/10/12 06:53:45;;;;;;;;;14.25;13.50;;;;;13.73;54.50;101803.28;5087794;28;45189;-76
2022/10/12 06:56:11;;;;;;;;;17.00;15.50;;;;;13.77;55.09;101815.91;5089944;28;45105;-76
2022/10/12 06:58:36;;;;;;;;;19.50;15.00;;;;;13.77;55.15;101824.88;5091132;28;45772;-74
2022/10/12 07:01:03;;;;;;;;;18.50;15.75;;;;;13.78;55.19;101823.13;5089617;28;45111;-70
2022/10/12 07:03:28;;;;;;;;;16.25;11.00;;;;;13.75;55.41;101834.66;5083391;27;46544;-72
2022/10/12 07:05:54;;;;;;;;;16.25;12.75;;;;;13.67;55.19;101821.88;5091576;27;45274;-75
2022/10/12 07:08:19;;;;;;;;;16.25;12.00;;;;;13.63;55.27;101815.50;5083471;28;53683;-77
2022/10/12 07:10:44;;;;;;;;;18.25;14.00;;;;;13.62;55.16;101813.69;5082851;27;50825;-76
2022/10/12 07:13:10;;;;;;;;;12.50;10.25;;;;;13.55;55.65;101811.69;5087354;28;45192;-71
2022/10/12 07:15:35;;;;;;;;;18.75;14.75;;;;;13.73;55.72;101831.03;5088299;28;45080;-80
2022/10/12 07:18:00;;;;;;;;;17.50;14.50;;;;;13.62;54.80;101800.25;5089673;28;45557;-73
2022/10/12 07:20:26;;;;;;;;;15.25;14.00;;;;;13.79;54.86;101831.22;5087799;28;50957;-76
2022/10/12 07:22:52;;;;;;;;;12.25;12.25;;;;;13.71;54.29;101803.22;5093369;28;45530;-67
2022/10/12 07:25:17;;;;;;;;;18.75;16.25;;;;;13.95;54.90;101837.97;5091130;28;45368;-78
2022/10/12 07:27:46;;;;;;;;;15.25;14.50;;;;;13.86;54.79;101818.91;5090766;28;45618;-72
2022/10/12 07:30:12;;;;;;;;;18.50;18.00;;;;;14.04;54.18;101845.41;5073551;28;45119;-76
2022/10/12 07:32:37;;;;;;;;;25.50;19.00;;;;;14.10;54.30;101836.59;5091239;28;45185;-79
2022/10/12 07:35:03;;;;;;;;;20.25;17.25;;;;;13.81;54.30;101778.47;5091740;28;53796;-76
2022/10/12 07:37:28;;;;;;;;;24.75;17.50;;;;;14.20;54.93;101846.75;5087399;28;47453;-77
2022/10/12 07:39:56;;;;;;;;;17.25;14.75;;;;;14.05;54.58;101823.03;5085347;28;45413;-76
2022/10/12 07:42:22;;;;;;;;;20.00;15.00;;;;;14.20;54.92;101844.06;5069026;28;45242;-77
2022/10/12 07:44:47;;;;;;;;;16.50;14.50;;;;;14.17;54.85;101836.84;5084512;27;45180;-76
2022/10/12 07:47:12;;;;;;;;;22.00;19.50;;;;;14.25;54.47;101850.47;5088114;27;52446;-74
2022/10/12 07:49:37;;;;;;;;;24.00;19.25;;;;;14.08;54.96;101819.53;5083644;27;45183;-77
2022/10/12 07:52:03;;;;;;;;;24.50;20.25;;;;;14.29;54.58;101854.19;5084728;28;47591;-75
2022/10/12 07:54:29;;;;;;;;;25.00;20.25;;;;;14.24;54.74;101846.00;5083315;28;44955;-78
2022/10/12 07:56:54;;;;;;;;;22.25;19.00;;;;;14.14;54.62;101830.47;5084148;28;45609;-73
2022/10/12 07:59:20;;;;;;;;;24.00;19.00;;;;;14.28;54.19;101842.50;5082580;28;45120;-77
2022/10/12 08:01:45;;;;;;;;;25.50;23.50;;;;;14.27;54.23;101843.41;5078900;28;44850;-76
2022/10/12 08:04:10;;;;;;;;;37.00;21.25;;;;;14.43;54.60;101854.56;5080290;28;45104;-77
2022/10/12 08:06:36;;;;;;;;;33.75;22.25;;;;;14.22;54.13;101820.81;5058383;28;47104;-75
2022/10/12 08:09:02;;;;;;;;;25.50;19.75;;;;;14.41;54.23;101845.56;5064150;28;45171;-74
2022/10/12 08:11:28;;;;;;;;;21.75;19.25;;;;;14.54;54.15;101866.53;5085283;28;45129;-69
2022/10/12 08:13:54;;;;;;;;;22.50;19.00;;;;;14.51;54.13;101848.53;5081188;28;45199;-75
2022/10/12 08:16:21;;;;;;;;;26.25;22.50;;;;;14.53;53.99;101854.84;5079692;28;45775;-79
2022/10/12 08:18:47;;;;;;;;;21.00;17.75;;;;;14.28;53.77;101801.28;5066284;28;45232;-70
2022/10/12 08:21:14;;;;;;;;;24.50;19.50;;;;;14.65;53.92;101867.78;5063277;28;45388;-67
2022/10/12 08:23:39;;;;;;;;;27.50;21.50;;;;;14.71;53.44;101876.00;5066475;28;45143;-71
2022/10/12 08:26:05;;;;;;;;;23.25;19.75;;;;;14.75;53.53;101871.66;5083419;28;45581;-74
2022/10/12 08:28:31;;;;;;;;;27.75;21.25;;;;;14.79;53.53;101868.16;5083253;28;45172;-67
2022/10/12 08:30:56;;;;;;;;;27.50;24.50;;;;;14.64;53.74;101831.00;5085256;28;45114;-75
2022/10/12 08:33:22;;;;;;;;;34.50;25.75;;;;;14.87;53.79;101860.31;5088080;28;44957;-70
2022/10/12 08:35:48;;;;;;;;;29.00;20.25;;;;;14.84;53.51;101855.75;5087639;28;51444;-74
2022/10/12 08:38:15;;;;;;;;;28.50;23.50;;;;;14.95;53.35;101863.19;5089251;28;45258;-70
2022/10/12 08:41:05;;;;;;;;;33.75;23.75;;;;;14.98;52.99;101874.03;5089704;28;45257;-71
2022/10/12 08:43:47;;;;;;;;;31.00;26.50;;;;;15.04;53.28;101864.31;5079635;28;45010;-73
2022/10/12 08:46:13;;;;;;;;;37.00;28.00;;;;;15.15;52.95;101872.69;5087572;28;45390;-75
2022/10/12 08:48:45;;;;;;;;;37.50;23.00;;;;;15.17;52.89;101870.94;5087487;28;45348;-73
2022/10/12 08:51:19;;;;;;;;;29.00;25.25;;;;;14.94;52.74;101813.84;5103868;27;45173;-74
2022/10/12 08:54:10;;;;;;;;;26.00;23.00;;;;;15.33;52.76;101864.19;5106125;27;45313;-68
2022/10/12 08:56:39;;;;;;;;;44.00;35.50;;;;;15.40;52.29;101873.31;5105774;27;45320;-70
2022/10/12 08:59:04;;;;;;;;;38.00;29.25;;;;;15.47;52.40;101876.16;5113056;27;45297;-71
2022/10/12 09:01:35;;;;;;;;;29.75;23.75;;;;;15.48;51.91;101871.72;5112933;27;45386;-72
2022/10/12 09:04:16;;;;;;;;;35.50;29.50;;;;;15.66;51.65;101876.63;5113231;27;46302;-71
2022/10/12 09:06:46;;;;;;;;;26.50;26.00;;;;;15.71;51.19;101874.97;5115087;27;45263;-72
2022/10/12 09:09:33;;;;;;;;;31.00;27.75;;;;;15.39;51.39;101798.78;5110242;27;45185;-76
2022/10/12 09:12:33;;;;;;;;;34.50;27.00;;;;;15.91;51.53;101875.44;5114105;27;44962;-77
2022/10/12 09:15:05;;;;;;;;;30.00;26.25;;;;;15.90;51.51;101837.69;5077818;27;45047;-75
2022/10/12 09:17:42;;;;;;;;;29.75;29.75;;;;;16.16;51.20;101868.78;5115990;27;45900;-71
2022/10/12 09:20:30;;;;;;;;;29.50;25.00;;;;;16.35;50.29;101867.41;5114646;27;45110;-72
2022/10/12 09:23:24;;;;;;;;;27.00;24.75;;;;;16.60;50.00;101867.91;5113485;27;45134;-71
2022/10/12 09:25:49;;;;;;;;;26.75;24.75;;;;;16.54;49.62;101817.41;5103278;27;45143;-76
2022/10/12 09:28:37;;;;;;;;;30.00;24.50;;;;;16.90;49.26;101850.50;5105521;27;46436;-70
2022/10/12 09:31:09;;;;;;;;;28.75;25.75;;;;;17.03;49.63;101855.22;5121457;27;45201;-70
2022/10/12 09:33:47;;;;;;;;;32.00;27.75;;;;;17.11;49.14;101853.56;5110793;27;45023;-70
2022/10/12 09:36:18;;;;;;;;;38.00;32.75;;;;;17.16;49.36;101853.66;5111686;27;45041;-69
2022/10/12 09:38:44;;;;;;;;;43.00;34.25;;;;;17.15;49.34;101846.44;5111513;27;45898;-71
2022/10/12 09:41:33;;;;;;;;;31.50;27.50;;;;;17.09;49.38;101822.94;5108472;27;45828;-76
2022/10/12 09:44:01;;;;;;;;;38.25;28.25;;;;;17.26;49.10;101836.72;5105387;27;45365;-72
2022/10/12 09:46:38;;;;;;;;;45.50;35.00;;;;;17.38;48.54;101841.41;5112147;27;45100;-75
2022/10/12 09:49:03;;;;;;;;;36.00;30.50;;;;;17.41;48.77;101836.03;5112402;27;45730;-78
2022/10/12 09:51:31;;;;;;;;;39.50;32.75;;;;;17.33;48.89;101813.41;5092611;28;46419;-79
2022/10/12 09:54:02;;;;;;;;;30.00;26.50;;;;;17.29;48.95;101787.22;5092558;28;45045;-74
2022/10/12 09:56:45;;;;;;;;;38.00;29.50;;;;;17.57;48.66;101831.81;5092562;28;45069;-70
2022/10/12 09:59:31;;;;;;;;;45.25;34.50;;;;;17.63;49.31;101836.38;5079900;28;46074;-68
2022/10/12 10:02:12;;;;;;;;;34.50;29.25;;;;;17.94;48.37;101835.03;5086594;28;45294;-77
2022/10/12 10:04:39;;;;;;;;;46.50;36.00;;;;;18.09;47.70;101820.81;5091854;28;45000;-75
2022/10/12 10:07:33;;;;;;;;;33.50;31.50;;;;;18.38;47.78;101823.88;5090982;28;45169;-80
2022/10/12 10:10:09;;;;;;;;;52.25;41.50;;;;;18.51;47.44;101818.56;5078730;28;46433;-75
2022/10/12 10:13:00;;;;;;;;;31.25;26.75;;;;;18.54;47.66;101815.91;5092677;28;45024;-74
2022/10/12 10:15:31;;;;;;;;;30.25;27.75;;;;;18.48;48.28;101796.91;5090512;28;45131;-71
2022/10/12 10:17:59;;;;;;;;;23.25;22.00;;;;;18.38;49.52;101783.28;5092453;28;45338;-73
2022/10/12 10:20:53;;;;;;;;;21.00;19.00;;;;;18.31;49.75;101766.97;5089050;28;45663;-75
2022/10/12 10:23:25;;;;;;;;;28.50;24.25;;;;;18.57;49.59;101808.72;5081113;28;45017;-73
2022/10/12 10:26:08;;;;;;;;;30.50;24.75;;;;;18.26;49.92;101761.50;5060331;28;45523;-74
2022/10/12 10:28:36;;;;;;;;;38.00;29.50;;;;;18.58;49.50;101810.56;5083227;28;45243;-74
2022/10/12 10:31:23;;;;;;;;;25.00;23.50;;;;;18.60;49.33;101808.75;5079192;28;45882;-73
2022/10/12 10:34:06;;;;;;;;;25.75;22.75;;;;;18.53;50.11;101790.66;5075194;28;45273;-72
2022/10/12 10:36:37;;;;;;;;;26.00;24.25;;;;;18.52;49.95;101790.63;5079906;28;45397;-74
2022/10/12 10:39:15;;;;;;;;;30.75;22.00;;;;;18.62;50.07;101803.38;5072899;28;45340;-73
2022/10/12 10:41:42;;;;;;;;;30.50;22.50;;;;;18.64;50.37;101809.69;5086261;28;45445;-68
2022/10/12 10:44:30;;;;;;;;;23.75;22.75;;;;;18.65;50.90;101805.22;5071227;28;45622;-71
2022/10/12 10:47:07;;;;;;;;;23.25;20.75;;;;;18.60;51.56;101797.94;5070788;27;45489;-71
2022/10/12 10:49:38;;;;;;;;;17.50;16.50;;;;;18.51;51.59;101764.47;5069715;27;45541;-73
2022/10/12 10:52:06;;;;;;;;;18.25;13.25;;;;;18.76;51.52;101800.81;5072232;27;45756;-74
2022/10/12 10:54:37;;;;;;;;;16.00;13.75;;;;;18.63;51.34;101770.00;5071220;27;45461;-78
2022/10/12 10:57:22;;;;;;;;;21.00;16.75;;;;;18.14;50.93;101662.19;5068239;27;45493;-74
2022/10/12 10:59:57;;;;;;;;;12.67;12.67;;;;;18.92;50.76;101791.97;5068375;28;45561;-74
2022/10/12 11:02:38;;;;;;;;;18.00;16.75;;;;;18.95;50.75;101791.97;5070038;28;47941;-70
2022/10/12 11:05:16;;;;;;;;;11.67;11.00;;;;;18.91;49.58;101794.66;5066201;28;45647;-76
2022/10/12 11:07:49;;;;;;;;;19.00;11.50;;;;;18.74;49.61;101776.44;5069862;28;45781;-71
2022/10/12 11:10:23;;;;;;;;;15.67;13.67;;;;;18.92;49.88;101800.09;5072085;28;45628;-75
2022/10/12 11:12:56;;;;;;;;;17.25;15.00;;;;;18.94;49.81;101808.19;5074633;28;46327;-71
2022/10/12 11:15:33;;;;;;;;;12.67;11.33;;;;;18.98;49.98;101798.31;5059683;28;45298;-79
2022/10/12 11:18:22;;;;;;;;;13.67;13.00;;;;;18.83;49.38;101767.50;5074289;28;45544;-76
2022/10/12 11:20:54;;;;;;;;;17.33;11.67;;;;;19.06;49.31;101788.47;5084758;28;45525;-73
2022/10/12 11:23:38;;;;;;;;;19.50;14.25;;;;;19.12;49.39;101786.72;5078554;27;45764;-70
2022/10/12 11:26:12;;;;;;;;;13.67;11.00;;;;;19.21;48.95;101788.56;5076410;27;45459;-70